Time;durP1;ratioP1;P1;durP2;ratioP2;P2;SDS_P1;SDS_P2;PMS_P1;PMS_P2;Temp;Humidity;BMP_temperature;BMP_pressure;BME280_temperature;BME280_humidity;BME280_pressure;Samples;Min_cycle;Max_cycle;Signal;HPM_P1;HPM_P2
2022/01/12 00:00:57;;;;;;;27.00;15.18;;;;;;;;;;5094450;28;20357;-64
2022/01/12 00:03:24;;;;;;;27.83;14.20;;;;;;;;;;5094471;28;20027;-64
2022/01/12 00:05:50;;;;;;;25.88;13.32;;;;;;;;;;5093381;28;20063;-65
2022/01/12 00:08:16;;;;;;;28.65;14.48;;;;;;;;;;5094322;28;20075;-64
2022/01/12 00:10:43;;;;;;;22.55;13.05;;;;;;;;;;5094254;28;20020;-64
2022/01/12 00:13:10;;;;;;;27.20;13.90;;;;;;;;;;5094311;28;20055;-63
2022/01/12 00:15:36;;;;;;;26.15;13.73;;;;;;;;;;5093889;28;20032;-63
2022/01/12 00:18:02;;;;;;;23.58;14.15;;;;;;;;;;5094153;28;20031;-65
2022/01/12 00:20:28;;;;;;;25.63;13.88;;;;;;;;;;5093761;28;20035;-65
2022/01/12 00:22:55;;;;;;;27.25;13.45;;;;;;;;;;5092466;28;20122;-66
2022/01/12 00:33:20;;;;;;;21.70;12.38;;;;;;;;;;5093913;28;20138;-64
2022/01/12 00:35:48;;;;;;;22.48;12.80;;;;;;;;;;5093776;28;20048;-65
2022/01/12 00:38:16;;;;;;;24.30;11.98;;;;;;;;;;5093804;28;20031;-65
2022/01/12 00:40:47;;;;;;;19.95;11.05;;;;;;;;;;5093821;28;20063;-64
2022/01/12 00:43:14;;;;;;;24.25;12.43;;;;;;;;;;5093457;28;20035;-66
2022/01/12 00:45:45;;;;;;;26.20;11.93;;;;;;;;;;5092215;28;20473;-64
2022/01/12 00:48:12;;;;;;;22.90;12.10;;;;;;;;;;5092768;28;20109;-67
2022/01/12 00:50:39;;;;;;;20.80;12.05;;;;;;;;;;5093557;28;20016;-64
2022/01/12 00:53:06;;;;;;;20.83;12.25;;;;;;;;;;5093554;28;20079;-67
2022/01/12 00:55:33;;;;;;;25.15;12.77;;;;;;;;;;5093512;28;20141;-64
2022/01/12 00:57:59;;;;;;;26.25;14.68;;;;;;;;;;5093425;28;20547;-63
2022/01/12 01:00:28;;;;;;;22.52;12.18;;;;;;;;;;5093404;28;20461;-65
2022/01/12 01:02:55;;;;;;;23.80;12.70;;;;;;;;;;5092152;28;20024;-65
2022/01/12 01:05:22;;;;;;;23.35;12.40;;;;;;;;;;5093314;28;20058;-64
2022/01/12 01:07:49;;;;;;;23.90;13.10;;;;;;;;;;5092114;28;20032;-65
2022/01/12 01:10:25;;;;;;;24.55;13.40;;;;;;;;;;5093305;28;20457;-63
2022/01/12 01:12:52;;;;;;;27.27;13.15;;;;;;;;;;5093260;28;20031;-64
2022/01/12 01:15:27;;;;;;;23.90;13.68;;;;;;;;;;5093286;28;20024;-65
2022/01/12 01:26:08;;;;;;;30.00;13.55;;;;;;;;;;5092929;28;20126;-63
2022/01/12 01:28:34;;;;;;;20.27;12.18;;;;;;;;;;5093158;28;20032;-64
2022/01/12 01:31:00;;;;;;;18.88;10.80;;;;;;;;;;5091801;28;20030;-64
2022/01/12 01:33:27;;;;;;;19.58;11.05;;;;;;;;;;5093073;28;20098;-65
2022/01/12 01:35:56;;;;;;;16.90;10.68;;;;;;;;;;5092602;28;20555;-64
2022/01/12 01:38:23;;;;;;;14.75;9.43;;;;;;;;;;5093066;28;20020;-65
2022/01/12 01:40:49;;;;;;;20.77;10.52;;;;;;;;;;5091415;28;20077;-64
2022/01/12 01:53:57;;;;;;;21.20;10.60;;;;;;;;;;5092664;28;20057;-64
2022/01/12 01:56:23;;;;;;;17.67;9.93;;;;;;;;;;5091221;28;20028;-65
2022/01/12 01:58:49;;;;;;;20.55;11.93;;;;;;;;;;5094164;28;20046;-63
2022/01/12 02:01:16;;;;;;;20.60;12.45;;;;;;;;;;5096826;28;20023;-63
2022/01/12 02:03:43;;;;;;;19.83;11.65;;;;;;;;;;5096762;28;20032;-63
2022/01/12 02:06:10;;;;;;;20.35;11.60;;;;;;;;;;5096712;28;20028;-64
2022/01/12 02:08:36;;;;;;;23.67;12.63;;;;;;;;;;5096343;28;20028;-64
2022/01/12 02:11:03;;;;;;;22.25;12.63;;;;;;;;;;5095334;28;20052;-63
2022/01/12 02:13:30;;;;;;;24.00;12.48;;;;;;;;;;5096618;28;20507;-63
2022/01/12 02:15:58;;;;;;;20.65;11.60;;;;;;;;;;5095275;28;20070;-63
2022/01/12 02:40:31;;;;;;;16.88;9.88;;;;;;;;;;5096097;28;20039;-63
2022/01/12 02:51:14;;;;;;;23.30;10.75;;;;;;;;;;5095930;28;20086;-66
2022/01/12 02:53:42;;;;;;;16.00;10.23;;;;;;;;;;5094621;28;20444;-65
2022/01/12 02:56:09;;;;;;;22.45;11.80;;;;;;;;;;5094519;28;20038;-65
2022/01/12 02:58:35;;;;;;;22.58;12.30;;;;;;;;;;5095702;28;20027;-64
2022/01/12 03:01:46;;;;;;;19.90;10.40;;;;;;;;;;5094419;28;20044;-64
2022/01/12 03:03:51;;;;;;;15.65;9.20;;;;;;;;;;5094692;28;20465;-64
2022/01/12 03:06:21;;;;;;;16.67;8.52;;;;;;;;;;5094033;28;20056;-64
2022/01/12 03:08:48;;;;;;;20.05;8.93;;;;;;;;;;5095576;28;20035;-64
2022/01/12 03:11:15;;;;;;;16.23;7.70;;;;;;;;;;5094387;28;20020;-64
2022/01/12 03:13:42;;;;;;;16.65;8.27;;;;;;;;;;5095421;28;20073;-65
2022/01/12 03:16:17;;;;;;;17.08;8.48;;;;;;;;;;5094121;28;20080;-65
2022/01/12 03:18:44;;;;;;;12.80;7.15;;;;;;;;;;5094114;28;20373;-65
2022/01/12 03:21:11;;;;;;;13.05;7.30;;;;;;;;;;5095273;28;20032;-64
2022/01/12 03:23:37;;;;;;;11.02;6.65;;;;;;;;;;5095256;28;20028;-64
2022/01/12 03:26:05;;;;;;;11.68;6.43;;;;;;;;;;5095200;28;20452;-65
2022/01/12 03:28:32;;;;;;;9.73;6.70;;;;;;;;;;5095217;28;20055;-64
2022/01/12 03:39:03;;;;;;;13.80;8.07;;;;;;;;;;5095021;28;20063;-64
2022/01/12 03:41:32;;;;;;;17.15;8.50;;;;;;;;;;5094887;28;20055;-64
2022/01/12 03:43:59;;;;;;;17.75;9.00;;;;;;;;;;5094791;28;20121;-64
2022/01/12 03:46:30;;;;;;;17.05;8.00;;;;;;;;;;5095121;28;20043;-64
2022/01/12 03:48:56;;;;;;;;;;;;;;;;;;5095232;28;20032;-63
2022/01/12 03:51:22;;;;;;;16.58;8.50;;;;;;;;;;5094725;28;19911;-64
2022/01/12 03:53:49;;;;;;;15.77;8.57;;;;;;;;;;5094887;28;20111;-65
2022/01/12 03:56:15;;;;;;;12.90;7.32;;;;;;;;;;5094660;28;20024;-64
2022/01/12 03:58:42;;;;;;;11.45;7.32;;;;;;;;;;5094811;28;20039;-62
2022/01/12 04:01:08;;;;;;;14.05;7.45;;;;;;;;;;5093191;28;20376;-62
2022/01/12 04:03:39;;;;;;;14.27;8.05;;;;;;;;;;5094492;28;20350;-62
2022/01/12 04:08:50;;;;;;;12.95;7.15;;;;;;;;;;5094422;28;20392;-65
2022/01/12 04:11:17;;;;;;;13.40;7.18;;;;;;;;;;5094569;28;20032;-65
2022/01/12 04:13:44;;;;;;;11.48;6.60;;;;;;;;;;5092711;28;20031;-62
2022/01/12 04:16:12;;;;;;;12.23;7.10;;;;;;;;;;5094299;28;20064;-66
2022/01/12 04:18:38;;;;;;;13.70;7.45;;;;;;;;;;5094218;28;20383;-63
2022/01/12 04:21:07;;;;;;;11.85;7.13;;;;;;;;;;5093940;28;20024;-66
2022/01/12 04:23:35;;;;;;;15.32;8.00;;;;;;;;;;5094156;28;20368;-64
2022/01/12 04:26:04;;;;;;;11.77;6.15;;;;;;;;;;5094070;28;20046;-67
2022/01/12 04:28:30;;;;;;;12.85;6.05;;;;;;;;;;5094031;28;20103;-64
2022/01/12 04:30:57;;;;;;;11.73;6.55;;;;;;;;;;5094199;28;20469;-65
2022/01/12 04:33:24;;;;;;;16.15;8.93;;;;;;;;;;5093886;28;20032;-64
2022/01/12 04:35:54;;;;;;;15.90;8.40;;;;;;;;;;5093476;28;20056;-64
2022/01/12 04:38:22;;;;;;;13.82;7.32;;;;;;;;;;5093821;28;20024;-66
2022/01/12 04:40:48;;;;;;;12.60;6.97;;;;;;;;;;5093729;28;20057;-68
2022/01/12 04:43:15;;;;;;;11.35;6.72;;;;;;;;;;5093731;28;20126;-67
2022/01/12 04:50:45;;;;;;;12.13;6.45;;;;;;;;;;5093646;28;20487;-67
2022/01/12 04:53:12;;;;;;;10.43;6.35;;;;;;;;;;5093555;28;20058;-65
2022/01/12 04:55:38;;;;;;;13.73;7.03;;;;;;;;;;5093631;28;20483;-65
2022/01/12 04:58:06;;;;;;;14.25;6.03;;;;;;;;;;5093534;28;20115;-65
2022/01/12 05:00:34;;;;;;;12.57;6.63;;;;;;;;;;5093463;28;20020;-65
2022/01/12 05:13:45;;;;;;;15.15;9.15;;;;;;;;;;5093285;28;20031;-64
2022/01/12 05:16:12;;;;;;;20.83;9.35;;;;;;;;;;5093296;28;20028;-64
2022/01/12 05:18:38;;;;;;;17.70;6.93;;;;;;;;;;5092930;28;20388;-64
2022/01/12 05:21:05;;;;;;;15.77;7.97;;;;;;;;;;5092924;28;20463;-65
2022/01/12 05:23:32;;;;;;;14.57;7.50;;;;;;;;;;5093135;28;20476;-65
2022/01/12 05:25:59;;;;;;;12.70;8.02;;;;;;;;;;5093077;28;20031;-64
2022/01/12 05:28:26;;;;;;;16.50;8.13;;;;;;;;;;5093024;28;20074;-64
2022/01/12 05:30:52;;;;;;;12.30;8.03;;;;;;;;;;5093073;28;20127;-64
2022/01/12 05:33:19;;;;;;;15.20;7.97;;;;;;;;;;5093518;28;20035;-64
2022/01/12 05:35:45;;;;;;;13.98;7.13;;;;;;;;;;5095527;28;20055;-64
2022/01/12 05:38:13;;;;;;;14.02;7.57;;;;;;;;;;5097249;28;20416;-64
2022/01/12 05:40:40;;;;;;;13.48;8.02;;;;;;;;;;5095831;28;20028;-65
2022/01/12 05:43:07;;;;;;;70.53;31.05;;;;;;;;;;5096998;28;20032;-64
2022/01/12 05:45:34;;;;;;;37.38;16.65;;;;;;;;;;5097089;28;20369;-64
2022/01/12 05:50:39;;;;;;;18.15;9.75;;;;;;;;;;5097021;28;20029;-64
2022/01/12 05:53:06;;;;;;;18.52;10.48;;;;;;;;;;5096985;28;20024;-64
2022/01/12 05:55:32;;;;;;;12.18;6.65;;;;;;;;;;5096870;28;20067;-65
2022/01/12 05:57:58;;;;;;;12.15;7.30;;;;;;;;;;5096589;28;20540;-64
2022/01/12 06:00:26;;;;;;;16.48;7.75;;;;;;;;;;5096589;28;20107;-64
2022/01/12 06:02:52;;;;;;;23.15;9.52;;;;;;;;;;5096552;28;20028;-65
2022/01/12 06:05:19;;;;;;;17.20;8.32;;;;;;;;;;5096680;28;20035;-65
2022/01/12 06:07:46;;;;;;;15.50;6.70;;;;;;;;;;5096773;28;20036;-65
2022/01/12 06:10:12;;;;;;;16.65;8.27;;;;;;;;;;5096679;28;20020;-65
2022/01/12 06:12:40;;;;;;;14.23;7.45;;;;;;;;;;5096370;28;20019;-65
2022/01/12 06:15:07;;;;;;;18.65;8.70;;;;;;;;;;5096649;28;20073;-65
2022/01/12 06:17:33;;;;;;;18.67;9.63;;;;;;;;;;5096564;28;20156;-66
2022/01/12 06:20:00;;;;;;;31.95;14.85;;;;;;;;;;5096453;28;20050;-64
2022/01/12 06:22:26;;;;;;;114.40;38.67;;;;;;;;;;5096402;28;20032;-65
2022/01/12 06:24:54;;;;;;;62.10;23.00;;;;;;;;;;5096320;28;20023;-65
2022/01/12 06:27:22;;;;;;;78.07;25.98;;;;;;;;;;5096430;28;20052;-66
2022/01/12 06:30:04;;;;;;;78.25;27.40;;;;;;;;;;5096286;28;20510;-65
2022/01/12 06:32:30;;;;;;;30.63;11.73;;;;;;;;;;5096301;28;20024;-66
2022/01/12 06:34:56;;;;;;;20.58;9.20;;;;;;;;;;5096180;28;20491;-65
2022/01/12 06:37:23;;;;;;;19.00;9.67;;;;;;;;;;5096088;28;20028;-66
2022/01/12 06:39:49;;;;;;;20.08;10.18;;;;;;;;;;5094537;28;20038;-66
2022/01/12 06:42:15;;;;;;;22.70;10.85;;;;;;;;;;5095806;28;20085;-65
2022/01/12 06:44:41;;;;;;;23.60;11.73;;;;;;;;;;5095651;28;20028;-65
2022/01/12 06:47:08;;;;;;;21.40;11.52;;;;;;;;;;5095940;28;20122;-64
2022/01/12 06:49:34;;;;;;;28.85;11.65;;;;;;;;;;5094618;28;20052;-66
2022/01/12 06:52:00;;;;;;;23.90;12.52;;;;;;;;;;5094492;28;20021;-66
2022/01/12 06:54:26;;;;;;;24.58;11.73;;;;;;;;;;5095710;28;20032;-65
2022/01/12 06:56:53;;;;;;;20.00;9.77;;;;;;;;;;5095732;28;20103;-65
2022/01/12 06:59:19;;;;;;;34.95;18.08;;;;;;;;;;5094330;28;20042;-65
2022/01/12 07:01:45;;;;;;;17.50;9.32;;;;;;;;;;5095671;28;20024;-66
2022/01/12 07:04:11;;;;;;;16.38;8.52;;;;;;;;;;5095523;28;20024;-64
2022/01/12 07:06:38;;;;;;;19.77;9.75;;;;;;;;;;5094286;28;20024;-65
2022/01/12 07:09:07;;;;;;;21.08;9.00;;;;;;;;;;5095500;28;20035;-65
2022/01/12 07:11:33;;;;;;;22.38;10.98;;;;;;;;;;5095449;28;20020;-66
2022/01/12 07:14:00;;;;;;;17.58;9.98;;;;;;;;;;5094123;28;20063;-65
2022/01/12 07:16:26;;;;;;;50.45;23.95;;;;;;;;;;5094012;28;20036;-65
2022/01/12 07:18:52;;;;;;;40.28;20.23;;;;;;;;;;5095530;28;20033;-66
2022/01/12 07:21:18;;;;;;;31.38;16.25;;;;;;;;;;5095254;28;20024;-66
2022/01/12 07:23:45;;;;;;;43.13;24.25;;;;;;;;;;5095194;28;20023;-66
2022/01/12 07:26:11;;;;;;;19.13;10.65;;;;;;;;;;5095053;28;20060;-67
2022/01/12 07:28:37;;;;;;;18.00;11.00;;;;;;;;;;5094926;28;20029;-66
2022/01/12 07:31:03;;;;;;;18.70;11.52;;;;;;;;;;5095055;28;20032;-64
2022/01/12 07:33:30;;;;;;;23.65;13.63;;;;;;;;;;5095045;28;20497;-65
2022/01/12 07:35:56;;;;;;;20.35;11.93;;;;;;;;;;5076419;28;20076;-65
2022/01/12 07:38:22;;;;;;;19.88;10.48;;;;;;;;;;5074496;28;20397;-66
2022/01/12 07:40:49;;;;;;;24.67;12.93;;;;;;;;;;5074663;28;20031;-66
2022/01/12 07:43:15;;;;;;;21.13;11.50;;;;;;;;;;5074612;28;20131;-65
2022/01/12 07:45:41;;;;;;;25.65;11.88;;;;;;;;;;5074184;28;20391;-68
2022/01/12 07:48:07;;;;;;;21.90;13.15;;;;;;;;;;5074607;28;20052;-67
2022/01/12 07:50:34;;;;;;;32.60;16.42;;;;;;;;;;5074528;28;20095;-65
2022/01/12 07:53:00;;;;;;;28.35;15.82;;;;;;;;;;5074458;28;20016;-65
2022/01/12 07:55:27;;;;;;;37.25;19.75;;;;;;;;;;5073490;28;20032;-67
2022/01/12 07:57:53;;;;;;;37.78;19.63;;;;;;;;;;5073849;28;20112;-64
2022/01/12 08:00:20;;;;;;;49.70;23.27;;;;;;;;;;5074294;28;20512;-68
2022/01/12 08:02:46;;;;;;;52.10;24.98;;;;;;;;;;5056106;28;20109;-66
2022/01/12 08:05:13;;;;;;;27.02;14.70;;;;;;;;;;5074125;28;20123;-64
2022/01/12 08:07:40;;;;;;;26.75;15.02;;;;;;;;;;5074153;28;20025;-64
2022/01/12 08:10:09;;;;;;;23.48;13.55;;;;;;;;;;5074075;28;20017;-65
2022/01/12 08:12:37;;;;;;;29.38;13.90;;;;;;;;;;5074020;28;20017;-65
2022/01/12 08:15:06;;;;;;;39.00;20.48;;;;;;;;;;5073861;28;20033;-65
2022/01/12 08:17:33;;;;;;;60.97;25.65;;;;;;;;;;5055976;28;20025;-65
2022/01/12 08:20:00;;;;;;;75.53;28.57;;;;;;;;;;5055834;28;20036;-65
2022/01/12 08:22:27;;;;;;;54.88;23.13;;;;;;;;;;5073851;28;20086;-64
2022/01/12 08:24:53;;;;;;;49.53;23.30;;;;;;;;;;5073379;28;20090;-64
2022/01/12 08:27:19;;;;;;;52.37;25.13;;;;;;;;;;5073616;28;20052;-65
2022/01/12 08:29:46;;;;;;;56.30;24.38;;;;;;;;;;5073628;28;20021;-64
2022/01/12 08:32:12;;;;;;;60.72;25.58;;;;;;;;;;5073380;28;20365;-65
2022/01/12 08:34:38;;;;;;;51.97;23.60;;;;;;;;;;5067979;28;20048;-65
2022/01/12 08:37:05;;;;;;;58.78;26.45;;;;;;;;;;5053475;28;20021;-64
2022/01/12 08:39:31;;;;;;;47.25;22.02;;;;;;;;;;5035458;28;20025;-65
2022/01/12 08:41:57;;;;;;;44.67;22.73;;;;;;;;;;5053424;28;20116;-65
2022/01/12 08:44:24;;;;;;;42.47;20.33;;;;;;;;;;5053304;28;20043;-66
2022/01/12 08:46:50;;;;;;;48.50;22.55;;;;;;;;;;5053361;28;20060;-65
2022/01/12 08:49:16;;;;;;;43.95;20.15;;;;;;;;;;5053172;28;20033;-65
2022/01/12 08:51:42;;;;;;;34.67;17.23;;;;;;;;;;5032474;28;20453;-65
2022/01/12 08:54:08;;;;;;;43.93;19.03;;;;;;;;;;5033105;28;20124;-62
2022/01/12 08:56:37;;;;;;;42.42;17.13;;;;;;;;;;5053143;28;20025;-65
2022/01/12 08:59:03;;;;;;;58.55;23.38;;;;;;;;;;5053206;28;20075;-63
2022/01/12 09:01:29;;;;;;;52.00;23.20;;;;;;;;;;5052962;28;20072;-66
2022/01/12 09:03:56;;;;;;;42.88;21.05;;;;;;;;;;5032936;28;20025;-63
2022/01/12 09:06:22;;;;;;;50.65;24.08;;;;;;;;;;5034316;28;20384;-63
2022/01/12 09:08:49;;;;;;;41.97;20.98;;;;;;;;;;5049077;28;20025;-63
2022/01/12 09:11:15;;;;;;;39.80;20.00;;;;;;;;;;5033677;28;20029;-63
2022/01/12 09:13:41;;;;;;;39.67;18.17;;;;;;;;;;5052249;28;20056;-63
2022/01/12 09:16:10;;;;;;;47.25;22.45;;;;;;;;;;5052818;28;20072;-64
2022/01/12 09:18:39;;;;;;;37.15;18.92;;;;;;;;;;5050765;28;20028;-62
2022/01/12 09:21:05;;;;;;;46.67;21.15;;;;;;;;;;5051349;28;20068;-65
2022/01/12 09:23:31;;;;;;;258.13;103.85;;;;;;;;;;5051621;28;20029;-65
2022/01/12 09:25:58;;;;;;;104.05;45.67;;;;;;;;;;5034697;28;20389;-62
2022/01/12 09:28:24;;;;;;;48.65;22.92;;;;;;;;;;5034740;28;20366;-64
2022/01/12 09:30:53;;;;;;;45.30;21.85;;;;;;;;;;5052659;28;20112;-63
2022/01/12 09:33:19;;;;;;;52.53;24.13;;;;;;;;;;5052658;28;20021;-62
2022/01/12 09:35:49;;;;;;;46.50;24.50;;;;;;;;;;5066533;28;20122;-65
2022/01/12 09:38:15;;;;;;;54.35;23.45;;;;;;;;;;5072698;28;20029;-65
2022/01/12 09:40:42;;;;;;;45.55;21.35;;;;;;;;;;5072643;28;20056;-64
2022/01/12 09:43:08;;;;;;;63.58;28.75;;;;;;;;;;5054793;28;20033;-65
2022/01/12 09:45:35;;;;;;;44.70;20.90;;;;;;;;;;5072710;28;20043;-63
2022/01/12 09:48:01;;;;;;;46.90;22.70;;;;;;;;;;5072804;28;20028;-66
2022/01/12 09:50:27;;;;;;;49.55;25.10;;;;;;;;;;5072173;28;20024;-65
2022/01/12 09:52:54;;;;;;;51.45;24.10;;;;;;;;;;5054693;28;20032;-69
2022/01/12 09:55:20;;;;;;;49.08;22.30;;;;;;;;;;5072643;28;20029;-65
2022/01/12 09:57:47;;;;;;;56.72;24.45;;;;;;;;;;5072387;28;20029;-65
2022/01/12 10:00:16;;;;;;;45.75;22.92;;;;;;;;;;5072521;28;20049;-65
2022/01/12 10:02:43;;;;;;;47.42;21.45;;;;;;;;;;5072575;28;20529;-65
2022/01/12 10:05:09;;;;;;;181.10;69.80;;;;;;;;;;5054226;28;20032;-67
2022/01/12 10:07:36;;;;;;;46.45;23.38;;;;;;;;;;5072405;28;20114;-63
2022/01/12 10:10:06;;;;;;;38.60;21.05;;;;;;;;;;5072495;28;20040;-66
2022/01/12 10:12:33;;;;;;;48.80;22.90;;;;;;;;;;5072543;28;20032;-66
2022/01/12 10:15:00;;;;;;;50.97;22.73;;;;;;;;;;5072212;28;20370;-66
2022/01/12 10:17:37;;;;;;;42.22;20.95;;;;;;;;;;5072440;28;20032;-65
2022/01/12 10:20:11;;;;;;;66.40;32.15;;;;;;;;;;5073808;28;20021;-67
2022/01/12 10:22:38;;;;;;;47.03;21.73;;;;;;;;;;5076145;28;20035;-67
2022/01/12 10:25:23;;;;;;;62.58;27.77;;;;;;;;;;5076004;28;20021;-65
2022/01/12 10:27:50;;;;;;;48.17;21.75;;;;;;;;;;5076053;28;20465;-65
2022/01/12 10:30:24;;;;;;;91.60;36.90;;;;;;;;;;5075939;28;20034;-65
2022/01/12 10:32:59;;;;;;;51.90;24.23;;;;;;;;;;5057962;28;20029;-66
2022/01/12 10:35:27;;;;;;;181.25;69.82;;;;;;;;;;5075562;28;20080;-64
2022/01/12 10:37:53;;;;;;;46.00;22.73;;;;;;;;;;5057822;28;20463;-66
2022/01/12 10:40:19;;;;;;;46.97;23.75;;;;;;;;;;5075642;28;20025;-66
2022/01/12 10:42:45;;;;;;;52.22;26.77;;;;;;;;;;5075482;28;20384;-65
2022/01/12 10:45:12;;;;;;;43.40;23.50;;;;;;;;;;5075772;28;20089;-65
2022/01/12 10:47:38;;;;;;;44.08;24.13;;;;;;;;;;5057784;28;20029;-65
2022/01/12 10:50:06;;;;;;;37.45;19.58;;;;;;;;;;5057746;28;20025;-65
2022/01/12 10:52:38;;;;;;;50.22;28.13;;;;;;;;;;5075228;28;20033;-65
2022/01/12 10:55:09;;;;;;;46.67;21.63;;;;;;;;;;5056922;28;20067;-65
2022/01/12 10:57:37;;;;;;;46.78;21.80;;;;;;;;;;5075445;28;20103;-66
2022/01/12 11:00:08;;;;;;;42.40;20.63;;;;;;;;;;5057556;28;20066;-64
2022/01/12 11:02:35;;;;;;;51.47;26.05;;;;;;;;;;5075460;28;20024;-65
2022/01/12 11:05:02;;;;;;;71.47;32.88;;;;;;;;;;5075522;28;20028;-65
2022/01/12 11:07:31;;;;;;;53.08;27.42;;;;;;;;;;5075403;28;20106;-66
2022/01/12 11:09:59;;;;;;;57.55;23.77;;;;;;;;;;5075093;28;20012;-65
2022/01/12 11:12:25;;;;;;;45.45;23.50;;;;;;;;;;5057262;28;20023;-65
2022/01/12 11:14:52;;;;;;;110.20;55.97;;;;;;;;;;5057222;28;20350;-65
2022/01/12 11:17:18;;;;;;;76.78;39.20;;;;;;;;;;5057185;28;20024;-65
2022/01/12 11:19:50;;;;;;;39.55;18.85;;;;;;;;;;5075055;28;20021;-65
2022/01/12 11:22:34;;;;;;;41.53;19.98;;;;;;;;;;5075085;28;20025;-67
2022/01/12 11:25:01;;;;;;;43.85;21.92;;;;;;;;;;5074979;28;20131;-64
2022/01/12 11:27:27;;;;;;;49.45;22.23;;;;;;;;;;5056948;28;20067;-66
2022/01/12 11:29:53;;;;;;;47.22;21.55;;;;;;;;;;5057044;28;20112;-67
2022/01/12 11:32:24;;;;;;;46.08;22.80;;;;;;;;;;5056011;28;20028;-65
2022/01/12 11:35:04;;;;;;;49.93;24.13;;;;;;;;;;5074528;28;20405;-65
2022/01/12 11:37:30;;;;;;;58.72;25.55;;;;;;;;;;5074714;28;20043;-66
2022/01/12 11:40:07;;;;;;;43.17;20.83;;;;;;;;;;5074734;28;20519;-64
2022/01/12 11:42:36;;;;;;;46.90;22.88;;;;;;;;;;5056704;28;20035;-65
2022/01/12 11:45:03;;;;;;;62.28;27.75;;;;;;;;;;5074219;28;20032;-65
2022/01/12 11:47:31;;;;;;;58.53;26.65;;;;;;;;;;5071844;28;20037;-65
2022/01/12 11:49:57;;;;;;;47.17;22.98;;;;;;;;;;5073805;28;20043;-64
2022/01/12 11:52:26;;;;;;;53.70;23.63;;;;;;;;;;5073853;28;20020;-65
2022/01/12 11:54:54;;;;;;;60.25;25.80;;;;;;;;;;5056305;28;20120;-64
2022/01/12 11:57:31;;;;;;;45.30;23.10;;;;;;;;;;5074086;28;20025;-65
2022/01/12 12:00:00;;;;;;;49.22;22.77;;;;;;;;;;5074295;28;20041;-65
2022/01/12 12:02:34;;;;;;;43.33;21.30;;;;;;;;;;5074365;28;20033;-65
2022/01/12 12:05:01;;;;;;;70.43;31.48;;;;;;;;;;5056023;28;20460;-68
2022/01/12 12:07:28;;;;;;;92.38;38.28;;;;;;;;;;5073691;28;20048;-66
2022/01/12 12:09:57;;;;;;;48.00;22.30;;;;;;;;;;5074047;28;20053;-65
2022/01/12 12:12:29;;;;;;;42.20;22.60;;;;;;;;;;5068576;28;20039;-66
2022/01/12 12:14:57;;;;;;;44.60;21.85;;;;;;;;;;5072951;28;20476;-67
2022/01/12 12:17:25;;;;;;;50.17;23.20;;;;;;;;;;5073652;28;20036;-65
2022/01/12 12:19:52;;;;;;;42.58;20.30;;;;;;;;;;5074057;28;20107;-64
2022/01/12 12:22:21;;;;;;;45.75;22.30;;;;;;;;;;5073091;28;20029;-65
2022/01/12 12:24:48;;;;;;;42.92;21.67;;;;;;;;;;5055517;28;20450;-64
2022/01/12 12:27:18;;;;;;;47.05;24.15;;;;;;;;;;5073587;28;20029;-64
2022/01/12 12:29:45;;;;;;;46.75;22.85;;;;;;;;;;5073699;28;20082;-66
2022/01/12 12:32:13;;;;;;;53.70;26.55;;;;;;;;;;5055528;28;20028;-65
2022/01/12 12:34:40;;;;;;;128.43;53.17;;;;;;;;;;5054955;28;20099;-65
2022/01/12 12:37:08;;;;;;;46.95;24.73;;;;;;;;;;5055605;28;20029;-64
2022/01/12 12:39:38;;;;;;;147.05;60.03;;;;;;;;;;5054894;28;20021;-64
2022/01/12 12:42:06;;;;;;;76.18;34.83;;;;;;;;;;5072836;28;20063;-63
2022/01/12 12:44:33;;;;;;;51.55;23.20;;;;;;;;;;5055458;28;20082;-64
2022/01/12 12:47:13;;;;;;;42.17;19.98;;;;;;;;;;5073448;28;20029;-64
2022/01/12 12:49:52;;;;;;;50.78;23.35;;;;;;;;;;5055550;28;20063;-64
2022/01/12 12:52:24;;;;;;;40.42;21.80;;;;;;;;;;5055283;28;20091;-65
2022/01/12 12:54:51;;;;;;;54.42;26.80;;;;;;;;;;5055399;28;20025;-64
2022/01/12 12:57:21;;;;;;;48.38;24.27;;;;;;;;;;5055173;28;20031;-66
2022/01/12 13:00:11;;;;;;;43.53;21.92;;;;;;;;;;5054954;28;20028;-65
2022/01/12 13:02:38;;;;;;;44.08;22.45;;;;;;;;;;5042971;28;20041;-65
2022/01/12 13:05:06;;;;;;;45.67;22.20;;;;;;;;;;5073185;28;20399;-65
2022/01/12 13:07:36;;;;;;;45.10;24.52;;;;;;;;;;5054990;28;20119;-64
2022/01/12 13:10:06;;;;;;;43.30;22.73;;;;;;;;;;5073082;28;20028;-65
2022/01/12 13:12:37;;;;;;;39.83;19.98;;;;;;;;;;5055165;28;20029;-66
2022/01/12 13:15:03;;;;;;;41.55;21.90;;;;;;;;;;5054767;28;20029;-64
2022/01/12 13:17:29;;;;;;;71.53;28.15;;;;;;;;;;5073083;28;20598;-64
2022/01/12 13:22:32;;;;;;;96.07;33.08;;;;;;;;;;5073014;28;20121;-63
2022/01/12 13:24:59;;;;;;;47.42;23.58;;;;;;;;;;5071393;28;20372;-65
2022/01/12 13:27:26;;;;;;;44.10;20.90;;;;;;;;;;5072219;28;20055;-65
2022/01/12 13:29:53;;;;;;;49.00;22.45;;;;;;;;;;5072829;28;20031;-65
2022/01/12 13:32:19;;;;;;;42.50;19.95;;;;;;;;;;5072804;28;20055;-64
2022/01/12 13:34:59;;;;;;;41.92;21.05;;;;;;;;;;5072412;28;20048;-66
2022/01/12 13:37:25;;;;;;;37.70;19.85;;;;;;;;;;5072814;28;20020;-65
2022/01/12 13:40:21;;;;;;;47.20;22.60;;;;;;;;;;5072706;28;20063;-65
2022/01/12 13:42:49;;;;;;;53.97;24.77;;;;;;;;;;4971165;28;20151;-64
2022/01/12 13:45:18;;;;;;;41.72;20.05;;;;;;;;;;4971585;28;20035;-64
2022/01/12 13:47:50;;;;;;;53.53;25.85;;;;;;;;;;4970982;28;20039;-64
2022/01/12 13:50:19;;;;;;;45.95;21.92;;;;;;;;;;4969210;28;20566;-65
2022/01/12 13:52:55;;;;;;;55.65;25.88;;;;;;;;;;4970501;28;20499;-64
2022/01/12 13:55:21;;;;;;;74.32;33.17;;;;;;;;;;4973494;28;20143;-64
2022/01/12 13:57:55;;;;;;;55.00;25.40;;;;;;;;;;4958869;28;20035;-64
2022/01/12 14:00:21;;;;;;;53.13;25.45;;;;;;;;;;4974975;28;20069;-64
2022/01/12 14:02:47;;;;;;;181.40;86.15;;;;;;;;;;4975345;28;20079;-66
2022/01/12 14:05:20;;;;;;;73.70;33.63;;;;;;;;;;4975108;28;20031;-67
2022/01/12 14:08:41;;;;;;;58.17;28.73;;;;;;;;;;4959117;28;20117;-65
2022/01/12 14:10:34;;;;;;;64.00;29.10;;;;;;;;;;4964807;28;20035;-64
2022/01/12 14:13:00;;;;;;;200.07;83.28;;;;;;;;;;4975104;28;20118;-66
2022/01/12 14:15:29;;;;;;;80.03;39.17;;;;;;;;;;4958781;28;20561;-67
2022/01/12 14:17:55;;;;;;;84.78;42.50;;;;;;;;;;4974958;28;20034;-66
2022/01/12 14:20:31;;;;;;;78.55;36.30;;;;;;;;;;5076102;28;20032;-66
2022/01/12 14:23:00;;;;;;;66.53;34.58;;;;;;;;;;5076163;28;20028;-66
2022/01/12 14:25:39;;;;;;;71.95;33.88;;;;;;;;;;5058097;28;20056;-64
2022/01/12 14:28:06;;;;;;;65.65;31.98;;;;;;;;;;5076003;28;20099;-65
2022/01/12 14:30:33;;;;;;;91.45;43.08;;;;;;;;;;5076133;28;20029;-66
2022/01/12 14:32:59;;;;;;;144.65;67.82;;;;;;;;;;5057472;28;20119;-65
2022/01/12 14:35:26;;;;;;;79.10;37.35;;;;;;;;;;5075440;28;20055;-67
2022/01/12 14:37:52;;;;;;;86.13;39.63;;;;;;;;;;5075898;28;20079;-65
2022/01/12 14:40:19;;;;;;;74.00;34.70;;;;;;;;;;5075875;28;20099;-67
2022/01/12 14:42:46;;;;;;;73.93;32.13;;;;;;;;;;5075800;28;20487;-66
2022/01/12 14:45:15;;;;;;;88.50;39.63;;;;;;;;;;5056980;28;20050;-65
2022/01/12 14:47:41;;;;;;;91.07;38.90;;;;;;;;;;5056890;28;20032;-65
2022/01/12 14:50:08;;;;;;;89.40;39.13;;;;;;;;;;5057768;28;20082;-67
2022/01/12 14:52:35;;;;;;;94.20;42.08;;;;;;;;;;5075617;28;20456;-67
2022/01/12 14:55:02;;;;;;;104.63;45.08;;;;;;;;;;5075765;28;20025;-65
2022/01/12 14:57:28;;;;;;;123.88;52.75;;;;;;;;;;5075484;28;20055;-66
2022/01/12 14:59:54;;;;;;;124.40;54.33;;;;;;;;;;5075535;28;20035;-66
2022/01/12 15:02:21;;;;;;;135.25;56.80;;;;;;;;;;5075348;28;20078;-66
2022/01/12 15:04:47;;;;;;;117.82;52.92;;;;;;;;;;5075099;28;20439;-66
2022/01/12 15:07:13;;;;;;;113.13;50.33;;;;;;;;;;5073931;28;20496;-66
2022/01/12 15:09:42;;;;;;;128.88;56.88;;;;;;;;;;5075263;28;20150;-65
2022/01/12 15:12:14;;;;;;;117.07;56.05;;;;;;;;;;5075277;28;20452;-65
2022/01/12 15:14:47;;;;;;;109.60;51.35;;;;;;;;;;5075279;28;20111;-66
2022/01/12 15:17:13;;;;;;;115.88;51.22;;;;;;;;;;5075305;28;20029;-65
2022/01/12 15:19:39;;;;;;;120.05;50.92;;;;;;;;;;5057097;28;20119;-66
2022/01/12 15:22:05;;;;;;;116.60;51.47;;;;;;;;;;5075232;28;20032;-65
2022/01/12 15:24:32;;;;;;;132.10;55.53;;;;;;;;;;5074868;28;20048;-64
2022/01/12 15:26:58;;;;;;;133.70;56.88;;;;;;;;;;5074948;28;20111;-64
2022/01/12 15:29:24;;;;;;;123.25;54.10;;;;;;;;;;5074898;28;20056;-64
2022/01/12 15:31:50;;;;;;;112.88;48.03;;;;;;;;;;5075020;28;20027;-65
2022/01/12 15:34:17;;;;;;;101.55;43.42;;;;;;;;;;5074563;28;20029;-64
2022/01/12 15:36:43;;;;;;;108.07;44.22;;;;;;;;;;5074880;28;20054;-65
2022/01/12 15:39:10;;;;;;;128.85;50.65;;;;;;;;;;5074735;28;20055;-64
2022/01/12 15:41:36;;;;;;;138.75;55.17;;;;;;;;;;5074781;28;20094;-65
2022/01/12 15:44:02;;;;;;;192.75;74.97;;;;;;;;;;5074657;28;20029;-65
2022/01/12 15:46:28;;;;;;;253.50;98.03;;;;;;;;;;5074562;28;20032;-65
2022/01/12 15:48:54;;;;;;;314.98;115.80;;;;;;;;;;5074605;28;20504;-65
2022/01/12 15:51:21;;;;;;;174.70;74.03;;;;;;;;;;5074536;28;20526;-65